C719 Diversion




Date Battery Voltage (V) Gauge Height (ft) Canal Flow (cfs) Gate 1 Height (ft) Gate 2 Height (ft) Pond (ft) Pond Height (ft) Pond Battery Voltage (V) Pond RF Signal (db) Call Fails Total Fails Tries Auto Pond Pond Set (ft) Gate 1 Warning Gate 2 Warning Gate 1 Up Total Gate 1 Down Total Gate 2 Up Total Gate 2 Down Total Settle Count Auto CFS CFS Set (cfs)
07/01/2017 13.0 -0.22 0.00 0.20 0.31
07/02/2017 12.9 -0.31 0.00 0.20 0.31
07/03/2017 13.0 -0.35 0.00 0.20 0.31
07/04/2017 13.0 -0.46 0.00 0.20 0.31
07/05/2017 12.9 -0.62 0.00 0.20 0.31
07/06/2017 12.9 0.19 0.00 0.20 0.31
07/07/2017 12.7 0.48 14.24 0.53 0.57
07/08/2017 12.5 0.66 21.08 0.59 0.59
07/09/2017 12.4 0.66 21.05 0.49 0.49
07/10/2017 12.3 0.66 21.01 0.47 0.47
07/11/2017 12.2 0.66 20.99 0.46 0.46
07/12/2017 12.0 0.66 21.03 0.46 0.46
07/13/2017 11.7 0.70 22.98 0.40 0.40
07/14/2017 11.5 0.74 25.04 0.48 0.48
07/15/2017 11.1 0.74 25.04 0.50 0.50
07/16/2017 10.2 0.39 12.22 0.66 0.59
07/17/2017 12.2 0.74 25.15 0.48 0.56
07/18/2017 12.8 0.70 23.34 0.40 0.40
07/19/2017 12.5 0.74 25.03 0.44 0.44
07/20/2017 12.4 0.56 17.04 0.33 0.33
07/21/2017 12.4 0.55 15.98 0.28 0.28
07/22/2017 12.2 0.30 7.32 1.50 1.51
07/23/2017 12.1 0.37 9.93 1.22 1.22
07/24/2017 12.1 0.55 15.99 0.22 0.22
07/25/2017 12.0 0.55 15.99 0.23 0.23
07/26/2017 11.9 0.55 15.97 0.22 0.22
07/27/2017 11.9 0.52 14.77 0.19 0.19
07/28/2017 12.3 0.50 13.96 0.18 0.19
07/29/2017 12.2 0.50 14.00 0.18 0.18
07/30/2017 12.2 0.50 14.01 0.07 0.29
07/31/2017 12.2 0.50 14.01 0.06 0.30
Average 14.42 0.00
Maximum 25.15
Minimum 0.00
Total Volume (AF) 886.74 0.00